createdAt,value
2023-04-14T00:02:16.311Z,2.88
2023-04-14T00:04:44.638Z,2.90
2023-04-14T00:07:14.534Z,2.67
2023-04-14T00:09:44.588Z,2.35
2023-04-14T00:12:13.754Z,3.10
2023-04-14T00:14:43.885Z,3.05
2023-04-14T00:17:13.643Z,2.50
2023-04-14T00:19:42.425Z,2.45
2023-04-14T00:22:12.888Z,2.20
2023-04-14T00:24:44.417Z,2.17
2023-04-14T00:27:13.289Z,2.90
2023-04-14T00:29:41.530Z,3.05
2023-04-14T00:32:10.617Z,2.72
2023-04-14T00:34:43.198Z,2.70
2023-04-14T00:37:11.740Z,2.92
2023-04-14T00:39:41.644Z,2.40
2023-04-14T00:42:09.868Z,2.72
2023-04-14T00:44:37.736Z,2.58
2023-04-14T00:47:06.925Z,2.65
2023-04-14T00:49:37.627Z,2.53
2023-04-14T00:52:06.810Z,2.40
2023-04-14T00:54:35.371Z,2.20
2023-04-14T00:57:05.565Z,2.20
2023-04-14T00:59:33.654Z,2.00
2023-04-14T01:02:01.801Z,2.40
2023-04-14T01:04:40.475Z,2.35
2023-04-14T01:07:16.542Z,2.70
2023-04-14T01:09:44.117Z,2.50
2023-04-14T01:12:30.150Z,2.58
2023-04-14T01:15:45.476Z,2.33
2023-04-14T01:18:45.131Z,2.67
2023-04-14T01:21:23.089Z,2.80
2023-04-14T01:24:06.143Z,3.03
2023-04-14T01:26:34.336Z,3.00
2023-04-14T01:29:52.431Z,2.65
2023-04-14T01:32:26.046Z,3.00
2023-04-14T01:35:13.183Z,3.45
2023-04-14T01:37:52.898Z,3.45
2023-04-14T01:40:22.858Z,2.92
2023-04-14T01:43:03.944Z,3.08
2023-04-14T01:45:51.522Z,2.67
2023-04-14T01:48:20.043Z,2.65
2023-04-14T01:50:49.700Z,2.90
2023-04-14T01:53:20.605Z,2.80
2023-04-14T01:55:50.987Z,2.58
2023-04-14T01:58:21.182Z,2.80
2023-04-14T02:00:52.251Z,2.80
2023-04-14T02:03:22.565Z,2.83
2023-04-14T02:05:56.192Z,2.97
2023-04-14T02:08:26.142Z,3.20
2023-04-14T02:10:57.190Z,3.22
2023-04-14T02:13:27.577Z,3.25
2023-04-14T02:15:59.172Z,2.97
2023-04-14T02:18:30.154Z,3.10
2023-04-14T02:21:04.384Z,4.00
2023-04-14T02:23:32.806Z,3.03
2023-04-14T02:26:14.527Z,3.50
2023-04-14T02:29:13.573Z,3.33
2023-04-14T02:31:49.819Z,3.35
2023-04-14T02:34:26.943Z,3.40
2023-04-14T02:37:00.860Z,3.30
2023-04-14T02:39:40.892Z,3.67
2023-04-14T02:42:19.542Z,4.22
2023-04-14T02:45:06.541Z,3.60
2023-04-14T02:47:47.238Z,4.47
2023-04-14T02:50:22.633Z,4.28
2023-04-14T02:52:59.346Z,4.75
2023-04-14T02:55:31.886Z,4.93
2023-04-14T02:58:02.721Z,6.15
2023-04-14T03:00:34.220Z,5.93
2023-04-14T03:03:07.526Z,6.22
2023-04-14T03:05:42.508Z,7.57
2023-04-14T03:08:16.026Z,6.35
2023-04-14T03:10:49.516Z,6.50
2023-04-14T03:13:22.533Z,6.47
2023-04-14T03:15:55.045Z,6.28
2023-04-14T03:18:24.591Z,6.05
2023-04-14T03:20:56.002Z,6.25
2023-04-14T03:23:27.126Z,5.93
2023-04-14T03:25:58.214Z,6.63
2023-04-14T03:28:34.952Z,6.60
2023-04-14T03:31:09.023Z,6.43
2023-04-14T03:33:40.468Z,6.88
2023-04-14T03:36:11.538Z,6.60
2023-04-14T03:38:42.966Z,7.05
2023-04-14T03:41:14.411Z,6.93
2023-04-14T03:43:44.430Z,6.97
2023-04-14T03:46:14.234Z,7.07
2023-04-14T03:48:47.243Z,6.55
2023-04-14T03:51:17.567Z,6.88
2023-04-14T03:53:48.192Z,7.38
2023-04-14T03:56:19.172Z,7.20
2023-04-14T03:58:51.478Z,8.07
2023-04-14T04:01:21.336Z,7.35
2023-04-14T04:03:49.579Z,8.10
2023-04-14T04:06:18.356Z,8.05
2023-04-14T04:08:49.916Z,6.45
2023-04-14T04:11:21.901Z,7.72
2023-04-14T04:13:56.088Z,7.47
2023-04-14T04:16:30.024Z,7.95
2023-04-14T04:19:04.546Z,8.27
2023-04-14T04:21:41.410Z,7.93
2023-04-14T04:24:13.966Z,8.23
2023-04-14T04:26:45.165Z,7.93
2023-04-14T04:29:14.712Z,8.25
2023-04-14T04:31:45.311Z,7.43
2023-04-14T04:34:19.205Z,8.32
2023-04-14T04:36:52.363Z,7.85
2023-04-14T04:39:23.237Z,7.70
2023-04-14T04:42:07.809Z,8.15
2023-04-14T04:44:39.345Z,8.43
2023-04-14T04:47:08.750Z,7.82
2023-04-14T04:49:37.199Z,7.40
2023-04-14T04:52:05.264Z,8.15
2023-04-14T04:54:36.003Z,7.25
2023-04-14T04:57:07.720Z,6.82
2023-04-14T04:59:39.527Z,7.45
2023-04-14T05:02:10.110Z,6.95
2023-04-14T05:04:40.964Z,7.22
2023-04-14T05:07:10.273Z,8.43
2023-04-14T05:09:39.351Z,7.93
2023-04-14T05:12:10.014Z,6.75
2023-04-14T05:14:43.124Z,7.28
2023-04-14T05:17:10.194Z,7.45
2023-04-14T05:19:37.624Z,7.25
2023-04-14T05:22:04.510Z,8.15
2023-04-14T05:24:31.654Z,8.38
2023-04-14T05:27:13.843Z,8.30
2023-04-14T05:29:42.592Z,7.88
2023-04-14T05:32:10.724Z,11.02
2023-04-14T05:34:37.891Z,11.75
2023-04-14T05:37:04.750Z,9.77
2023-04-14T05:39:31.902Z,7.90
2023-04-14T05:41:59.808Z,7.10
2023-04-14T05:44:27.123Z,6.78
2023-04-14T05:46:54.178Z,5.72
2023-04-14T05:49:21.488Z,6.22
2023-04-14T05:51:48.311Z,6.38
2023-04-14T05:54:17.956Z,6.00
2023-04-14T05:56:44.790Z,6.75
2023-04-14T05:59:11.919Z,6.20
2023-04-14T06:01:38.996Z,6.03
2023-04-14T06:04:06.753Z,6.05
2023-04-14T06:06:34.163Z,6.00
2023-04-14T06:09:01.674Z,6.03
2023-04-14T06:11:28.872Z,5.97
2023-04-14T06:13:56.074Z,5.55
2023-04-14T06:16:22.983Z,5.50
2023-04-14T06:18:50.243Z,5.20
2023-04-14T06:21:17.161Z,5.18
2023-04-14T06:23:45.647Z,5.03
2023-04-14T06:26:12.642Z,5.20
2023-04-14T06:28:41.091Z,4.60
2023-04-14T06:31:09.756Z,5.50
2023-04-14T06:33:37.045Z,5.50
2023-04-14T06:36:04.194Z,5.05
2023-04-14T06:38:31.382Z,4.53
2023-04-14T06:40:58.257Z,5.10
2023-04-14T06:43:25.429Z,4.53
2023-04-14T06:45:52.445Z,3.92
2023-04-14T06:48:19.728Z,4.13
2023-04-14T06:50:56.527Z,4.18
2023-04-14T06:53:23.989Z,4.15
2023-04-14T06:56:09.016Z,3.97
2023-04-14T06:58:36.667Z,4.10
2023-04-14T07:01:04.266Z,4.40
2023-04-14T07:03:31.970Z,3.78
2023-04-14T07:06:07.809Z,3.88
2023-04-14T07:08:36.754Z,4.10
2023-04-14T07:11:10.361Z,9.00
2023-04-14T07:13:39.257Z,9.13
2023-04-14T07:16:08.026Z,7.35
2023-04-14T07:18:36.206Z,5.65
2023-04-14T07:21:03.550Z,4.05
2023-04-14T07:23:31.037Z,4.20
2023-04-14T07:26:00.239Z,3.17
2023-04-14T07:28:28.253Z,4.65
2023-04-14T07:30:55.250Z,3.30
2023-04-14T07:33:22.791Z,3.60
2023-04-14T07:36:03.104Z,3.20
2023-04-14T07:38:33.325Z,2.85
2023-04-14T07:41:06.467Z,3.65
2023-04-14T07:43:37.035Z,2.75
2023-04-14T07:46:08.659Z,3.00
2023-04-14T07:48:38.086Z,3.13
2023-04-14T07:51:06.865Z,3.17
2023-04-14T07:53:34.841Z,3.13
2023-04-14T07:56:01.939Z,2.80
2023-04-14T07:58:29.652Z,2.67
2023-04-14T08:00:57.527Z,2.65
2023-04-14T08:03:24.690Z,2.85
2023-04-14T08:05:52.369Z,3.17
2023-04-14T08:08:19.728Z,2.90
2023-04-14T08:10:46.971Z,2.75
2023-04-14T08:13:13.861Z,2.28
2023-04-14T08:15:41.081Z,2.80
2023-04-14T08:18:08.013Z,2.95
2023-04-14T08:20:35.339Z,2.70
2023-04-14T08:23:02.325Z,2.65
2023-04-14T08:25:29.471Z,2.50
2023-04-14T08:27:56.510Z,2.88
2023-04-14T08:30:24.544Z,4.03
2023-04-14T08:32:52.041Z,2.83
2023-04-14T08:35:35.927Z,2.60
2023-04-14T08:38:06.896Z,2.90
2023-04-14T08:40:43.933Z,2.90
2023-04-14T08:43:13.853Z,3.72
2023-04-14T08:45:44.751Z,2.78
2023-04-14T08:48:16.463Z,2.60
2023-04-14T08:51:04.722Z,3.35
2023-04-14T08:53:33.609Z,2.72
2023-04-14T08:56:06.203Z,2.90
2023-04-14T08:58:34.315Z,3.13
2023-04-14T09:01:03.506Z,3.00
2023-04-14T09:03:31.633Z,3.47
2023-04-14T09:06:00.438Z,3.15
2023-04-14T09:08:28.279Z,3.17
2023-04-14T09:10:56.794Z,3.20
2023-04-14T09:13:28.523Z,3.03
2023-04-14T09:15:56.584Z,2.60
2023-04-14T09:18:25.403Z,6.15
2023-04-14T09:21:31.125Z,3.83
2023-04-14T09:23:43.765Z,3.08
2023-04-14T09:26:11.686Z,3.20
2023-04-14T09:28:39.214Z,3.20
2023-04-14T09:31:06.788Z,3.05
2023-04-14T09:33:40.170Z,2.95
2023-04-14T09:36:22.774Z,3.03
2023-04-14T09:38:51.817Z,3.00
2023-04-14T09:41:23.559Z,3.22
2023-04-14T09:43:50.698Z,2.90
2023-04-14T09:46:18.157Z,3.38
2023-04-14T09:48:56.475Z,2.67
2023-04-14T09:51:28.984Z,2.95
2023-04-14T09:54:03.541Z,3.33
2023-04-14T09:59:02.216Z,3.45
2023-04-14T10:01:34.294Z,3.33
2023-04-14T10:04:03.010Z,3.00
2023-04-14T10:06:32.225Z,3.30
2023-04-14T10:09:00.160Z,2.60
2023-04-14T10:11:33.065Z,2.63
2023-04-14T10:14:06.716Z,3.03
2023-04-14T10:16:34.833Z,3.90
2023-04-14T10:19:02.960Z,4.03
2023-04-14T10:21:31.015Z,3.50
2023-04-14T10:23:58.347Z,3.55
2023-04-14T10:26:26.836Z,3.45
2023-04-14T10:28:56.368Z,3.75
2023-04-14T10:31:55.521Z,3.15
2023-04-14T10:34:25.621Z,3.17
2023-04-14T10:36:53.499Z,3.42
2023-04-14T10:39:25.072Z,3.20
2023-04-14T10:41:55.901Z,3.42
2023-04-14T10:44:34.972Z,5.35
2023-04-14T10:47:08.036Z,3.15
2023-04-14T10:49:38.535Z,3.63
2023-04-14T10:52:27.499Z,3.50
2023-04-14T10:55:01.529Z,2.80
2023-04-14T10:57:30.267Z,3.00
2023-04-14T10:59:59.967Z,3.15
2023-04-14T11:02:31.899Z,2.42
2023-04-14T11:05:11.809Z,2.97
2023-04-14T11:07:47.289Z,2.95
2023-04-14T11:10:18.031Z,3.20
2023-04-14T11:13:08.405Z,3.30
2023-04-14T11:15:46.728Z,2.80
2023-04-14T11:18:20.155Z,2.83
2023-04-14T11:20:47.744Z,2.53
2023-04-14T11:23:16.613Z,2.38
2023-04-14T11:25:44.003Z,2.92
2023-04-14T11:28:11.340Z,2.65
2023-04-14T11:30:41.878Z,3.13
2023-04-14T11:33:09.170Z,3.42
2023-04-14T11:35:36.265Z,3.53
2023-04-14T11:38:04.180Z,2.95
2023-04-14T11:40:31.437Z,3.03
2023-04-14T11:43:00.629Z,3.35
2023-04-14T11:45:31.327Z,3.10
2023-04-14T11:48:04.354Z,2.85
2023-04-14T11:50:34.164Z,2.78
2023-04-14T11:53:02.939Z,2.72
2023-04-14T11:55:30.818Z,2.33
2023-04-14T11:57:59.271Z,2.35
2023-04-14T12:00:28.112Z,2.28
2023-04-14T12:02:56.694Z,2.20
2023-04-14T12:05:34.419Z,2.60
2023-04-14T12:08:12.117Z,2.13
2023-04-14T12:10:45.592Z,3.58
2023-04-14T12:13:12.720Z,2.50
2023-04-14T12:15:42.389Z,2.05
2023-04-14T12:18:14.738Z,2.97
2023-04-14T12:20:55.122Z,3.50
2023-04-14T12:23:25.678Z,2.63
2023-04-14T12:25:53.608Z,3.08
2023-04-14T12:28:29.096Z,3.15
2023-04-14T12:31:04.337Z,3.60
2023-04-14T12:33:32.890Z,2.95
2023-04-14T12:36:12.328Z,2.40
2023-04-14T12:38:39.717Z,3.30
2023-04-14T12:41:06.829Z,2.58
2023-04-14T12:43:36.568Z,2.22
2023-04-14T12:46:06.223Z,2.60
2023-04-14T12:48:49.184Z,2.30
2023-04-14T13:02:25.063Z,2.40
2023-04-14T13:04:52.492Z,2.63
2023-04-14T13:07:20.206Z,2.90
2023-04-14T13:09:47.475Z,2.58
2023-04-14T13:12:14.470Z,3.10
2023-04-14T13:14:41.700Z,2.92
2023-04-14T13:17:08.713Z,3.15
2023-04-14T13:19:36.057Z,4.00
2023-04-14T13:22:02.909Z,4.53
2023-04-14T13:24:30.256Z,4.47
2023-04-14T13:26:57.168Z,2.42
2023-04-14T13:29:24.296Z,2.70
2023-04-14T13:31:51.272Z,2.55
2023-04-14T13:34:18.989Z,2.78
2023-04-14T13:36:45.983Z,3.17
2023-04-14T13:39:14.047Z,3.75
2023-04-14T13:41:40.886Z,4.20
2023-04-14T13:44:08.101Z,3.72
2023-04-14T13:46:40.839Z,3.58
2023-04-14T13:49:08.530Z,4.15
2023-04-14T13:51:35.458Z,3.22
2023-04-14T13:54:02.686Z,3.83
2023-04-14T13:56:29.626Z,3.95
2023-04-14T13:58:57.045Z,3.85
2023-04-14T14:01:24.038Z,2.83
2023-04-14T14:03:51.671Z,3.30
2023-04-14T14:06:19.514Z,2.80
2023-04-14T14:08:46.658Z,3.13
2023-04-14T14:11:14.211Z,3.55
2023-04-14T14:13:41.534Z,3.70
2023-04-14T14:16:09.435Z,3.90
2023-04-14T14:18:37.960Z,3.92
2023-04-14T14:21:05.283Z,3.67
2023-04-14T14:23:32.737Z,3.67
2023-04-14T14:26:00.872Z,2.58
2023-04-14T14:28:32.453Z,3.05
2023-04-14T14:31:00.460Z,2.90
2023-04-14T14:33:27.529Z,3.30
2023-04-14T14:35:54.921Z,5.50
2023-04-14T14:38:22.071Z,8.02
2023-04-14T14:40:48.952Z,9.07
2023-04-14T14:43:16.399Z,9.25
2023-04-14T14:45:43.561Z,9.48
2023-04-14T14:48:11.736Z,9.50
2023-04-14T14:50:38.634Z,6.57
2023-04-14T14:53:05.951Z,4.38
2023-04-14T14:55:33.710Z,2.78
2023-04-14T14:58:01.754Z,2.63
2023-04-14T15:00:28.654Z,2.70
2023-04-14T15:02:56.148Z,2.80
2023-04-14T15:05:23.606Z,2.88
2023-04-14T15:07:51.007Z,3.22
2023-04-14T15:10:17.997Z,3.10
2023-04-14T15:12:45.174Z,2.47
2023-04-14T15:15:12.094Z,2.15
2023-04-14T15:17:39.304Z,2.63
2023-04-14T15:20:07.216Z,2.80
2023-04-14T15:22:35.973Z,2.80
2023-04-14T15:25:03.039Z,2.30
2023-04-14T15:27:30.287Z,2.10
2023-04-14T15:29:57.419Z,2.20
2023-04-14T15:32:26.762Z,2.55
2023-04-14T15:34:55.730Z,2.72
2023-04-14T15:37:22.878Z,2.30
2023-04-14T15:39:50.325Z,2.60
2023-04-14T15:42:17.558Z,2.20
2023-04-14T15:44:44.503Z,2.20
2023-04-14T15:47:11.827Z,2.00
2023-04-14T15:49:38.822Z,2.10
2023-04-14T15:52:05.993Z,2.35
2023-04-14T15:54:33.733Z,1.73
2023-04-14T15:57:02.269Z,2.08
2023-04-14T15:59:29.818Z,2.17
2023-04-14T16:01:57.058Z,2.15
2023-04-14T16:04:25.583Z,2.80
2023-04-14T16:06:54.667Z,2.85
2023-04-14T16:09:22.038Z,2.72
2023-04-14T16:11:50.499Z,3.08
2023-04-14T16:14:17.479Z,2.70
2023-04-14T16:16:47.147Z,2.70
2023-04-14T16:19:17.231Z,3.00
2023-04-14T16:21:44.435Z,2.67
2023-04-14T16:24:11.581Z,3.03
2023-04-14T16:26:38.929Z,2.30
2023-04-14T16:29:06.105Z,2.70
2023-04-14T16:31:33.468Z,2.60
2023-04-14T16:34:00.646Z,3.00
2023-04-14T16:36:28.096Z,3.00
2023-04-14T16:38:55.416Z,3.10
2023-04-14T16:41:22.714Z,2.90
2023-04-14T16:43:49.640Z,2.80
2023-04-14T16:46:17.125Z,5.65
2023-04-14T16:48:44.025Z,3.30
2023-04-14T16:51:11.374Z,2.80
2023-04-14T16:53:39.237Z,3.03
2023-04-14T16:56:07.729Z,4.10
2023-04-14T16:58:37.075Z,3.30
2023-04-14T17:01:06.446Z,3.03
2023-04-14T17:03:34.203Z,3.17
2023-04-14T17:06:01.635Z,3.90
2023-04-14T17:08:28.635Z,4.55
2023-04-14T17:10:56.086Z,4.25
2023-04-14T17:13:23.239Z,3.92
2023-04-14T17:16:02.056Z,3.95
2023-04-14T17:18:35.244Z,5.83
2023-04-14T17:21:02.886Z,4.72
2023-04-14T17:23:29.774Z,5.50
2023-04-14T17:25:59.823Z,4.28
2023-04-14T17:28:29.467Z,5.32
2023-04-14T17:30:57.528Z,5.00
2023-04-14T17:33:27.291Z,5.22
2023-04-14T17:35:55.713Z,4.38
2023-04-14T17:38:23.426Z,5.28
2023-04-14T17:40:53.296Z,4.68
2023-04-14T17:43:20.432Z,5.60
2023-04-14T17:45:50.440Z,4.90
2023-04-14T17:48:18.128Z,5.05
2023-04-14T17:50:46.413Z,5.60
2023-04-14T17:53:16.168Z,10.75
2023-04-14T17:55:44.881Z,23.27
2023-04-14T17:58:13.408Z,20.33
2023-04-14T18:00:41.539Z,8.85
2023-04-14T18:03:09.163Z,6.78
2023-04-14T18:05:36.475Z,5.30
2023-04-14T18:08:05.138Z,6.03
2023-04-14T18:10:32.790Z,6.40
2023-04-14T18:12:59.746Z,6.95
2023-04-14T18:15:27.085Z,6.00
2023-04-14T18:17:54.041Z,5.60
2023-04-14T18:20:25.110Z,5.43
2023-04-14T18:23:02.043Z,4.93
2023-04-14T18:28:03.166Z,4.35
2023-04-14T18:30:31.467Z,5.38
2023-04-14T18:32:58.613Z,4.90
2023-04-14T18:35:26.430Z,4.40
2023-04-14T18:37:53.799Z,4.10
2023-04-14T18:40:21.193Z,5.00
2023-04-14T18:42:49.207Z,4.63
2023-04-14T18:45:16.665Z,5.90
2023-04-14T18:47:46.048Z,5.43
2023-04-14T18:50:13.387Z,6.45
2023-04-14T18:52:43.697Z,5.40
2023-04-14T18:55:10.966Z,6.10
2023-04-14T18:57:38.227Z,5.05
2023-04-14T19:00:06.511Z,6.05
2023-04-14T19:02:34.593Z,5.32
2023-04-14T19:05:02.520Z,6.03
2023-04-14T19:07:29.661Z,5.20
2023-04-14T19:09:56.975Z,4.90
2023-04-14T19:12:28.391Z,7.18
2023-04-14T19:14:56.670Z,6.03
2023-04-14T19:17:24.019Z,4.78
2023-04-14T19:19:51.235Z,6.55
2023-04-14T19:22:18.180Z,5.90
2023-04-14T19:24:45.643Z,6.85
2023-04-14T19:27:12.637Z,5.47
2023-04-14T19:29:39.927Z,5.22
2023-04-14T19:32:06.854Z,5.72
2023-04-14T19:34:34.443Z,5.18
2023-04-14T19:37:03.326Z,5.95
2023-04-14T19:39:31.911Z,5.35
2023-04-14T19:41:59.827Z,7.28
2023-04-14T19:44:27.340Z,5.65
2023-04-14T19:46:54.418Z,5.20
2023-04-14T19:49:21.765Z,6.63
2023-04-14T19:51:52.794Z,5.47
2023-04-14T19:54:20.955Z,4.53
2023-04-14T19:56:48.469Z,5.80
2023-04-14T19:59:16.584Z,6.75
2023-04-14T20:01:45.093Z,7.07
2023-04-14T20:04:14.075Z,5.85
2023-04-14T20:06:42.978Z,5.38
2023-04-14T20:09:11.240Z,5.80
2023-04-14T20:11:39.727Z,6.53
2023-04-14T20:14:07.599Z,6.82
2023-04-14T20:16:34.899Z,6.55
2023-04-14T20:19:03.649Z,7.15
2023-04-14T20:21:31.528Z,6.47
2023-04-14T20:23:59.494Z,5.90
2023-04-14T20:26:27.835Z,7.00
2023-04-14T20:28:56.187Z,6.13
2023-04-14T20:31:24.460Z,6.90
2023-04-14T20:33:51.982Z,7.53
2023-04-14T20:36:19.525Z,6.25
2023-04-14T20:38:46.819Z,6.40
2023-04-14T20:41:13.981Z,7.43
2023-04-14T20:43:43.539Z,7.22
2023-04-14T20:46:11.322Z,6.30
2023-04-14T20:48:38.960Z,7.63
2023-04-14T20:51:06.519Z,7.88
2023-04-14T20:53:35.114Z,8.25
2023-04-14T20:56:02.334Z,6.93
2023-04-14T20:58:29.805Z,6.88
2023-04-14T21:00:57.576Z,6.78
2023-04-14T21:03:25.447Z,7.60
2023-04-14T21:05:52.654Z,8.18
2023-04-14T21:08:19.781Z,8.75
2023-04-14T21:11:15.767Z,7.85
2023-04-14T21:15:29.228Z,7.63
2023-04-14T21:16:22.301Z,7.28
2023-04-14T21:18:50.401Z,8.30
2023-04-14T21:21:17.954Z,7.65
2023-04-14T21:23:45.346Z,7.07
2023-04-14T21:26:13.362Z,7.00
2023-04-14T21:28:42.053Z,6.35
2023-04-14T21:31:10.512Z,5.95
2023-04-14T21:33:39.553Z,5.47
2023-04-14T21:36:07.127Z,7.20
2023-04-14T21:38:34.654Z,6.70
2023-04-14T21:41:02.080Z,6.57
2023-04-14T21:43:29.283Z,5.85
2023-04-14T21:45:57.080Z,5.40
2023-04-14T21:48:24.267Z,5.68
2023-04-14T21:50:51.267Z,6.28
2023-04-14T21:53:19.337Z,5.97
2023-04-14T21:55:47.446Z,7.25
2023-04-14T21:58:34.902Z,5.63
2023-04-14T22:01:02.145Z,5.22
2023-04-14T22:03:29.708Z,4.95
2023-04-14T22:05:56.718Z,5.55
2023-04-14T22:08:24.127Z,6.18
2023-04-14T22:10:52.394Z,7.03
2023-04-14T22:13:19.748Z,5.47
2023-04-14T22:15:47.239Z,5.18
2023-04-14T22:18:14.500Z,4.85
2023-04-14T22:20:42.255Z,5.30
2023-04-14T22:23:09.776Z,4.50
2023-04-14T22:25:36.883Z,4.95
2023-04-14T22:28:04.359Z,4.40
2023-04-14T22:30:31.466Z,5.10
2023-04-14T22:32:58.698Z,5.00
2023-04-14T22:35:25.848Z,5.38
2023-04-14T22:37:53.536Z,4.75
2023-04-14T22:40:21.135Z,4.47
2023-04-14T22:42:48.336Z,5.32
2023-04-14T22:45:15.543Z,5.30
2023-04-14T22:47:43.026Z,5.45
2023-04-14T22:50:10.758Z,5.13
2023-04-14T22:52:39.041Z,5.57
2023-04-14T22:55:06.727Z,4.70
2023-04-14T22:57:34.396Z,5.90
2023-04-14T23:00:01.596Z,4.63
2023-04-14T23:02:29.367Z,4.65
2023-04-14T23:04:56.550Z,4.63
2023-04-14T23:07:23.748Z,4.68
2023-04-14T23:09:51.152Z,5.15
2023-04-14T23:12:18.413Z,5.00
2023-04-14T23:14:45.524Z,4.70
2023-04-14T23:17:12.740Z,4.50
2023-04-14T23:19:39.694Z,4.75
2023-04-14T23:22:07.465Z,3.85
2023-04-14T23:24:34.553Z,3.97
2023-04-14T23:27:01.960Z,3.85
2023-04-14T23:29:28.947Z,4.18
2023-04-14T23:31:56.675Z,3.15
2023-04-14T23:34:23.898Z,3.50
2023-04-14T23:36:51.176Z,3.28
2023-04-14T23:39:18.588Z,3.53
2023-04-14T23:41:45.956Z,3.25
2023-04-14T23:44:13.036Z,3.33
2023-04-14T23:46:40.772Z,2.92
2023-04-14T23:49:24.429Z,3.15
2023-04-14T23:51:55.106Z,2.97
2023-04-14T23:54:22.099Z,2.65
2023-04-14T23:56:49.342Z,2.35
2023-04-14T23:59:17.154Z,2.53
